Time;durP1;ratioP1;P1;durP2;ratioP2;P2;SDS_P1;SDS_P2;PMS_P1;PMS_P2;Temp;Humidity;BMP_temperature;BMP_pressure;BME280_temperature;BME280_humidity;BME280_pressure;Samples;Min_cycle;Max_cycle;Signal;HPM_P1;HPM_P2
2022/10/09 00:00:13;;;;;;;0.93;0.70;;;10.30;99.90;;;;;;5076003;28;20824;-80
2022/10/09 00:02:39;;;;;;;0.60;0.60;;;10.30;99.90;;;;;;5075706;28;20452;-81
2022/10/09 00:05:07;;;;;;;0.70;0.70;;;10.40;99.90;;;;;;5075832;28;20987;-81
2022/10/09 00:07:34;;;;;;;0.63;0.60;;;10.40;99.90;;;;;;5075912;28;20512;-81
2022/10/09 00:10:00;;;;;;;0.83;0.50;;;10.40;99.90;;;;;;5075940;28;20450;-81
2022/10/09 00:12:27;;;;;;;2.20;1.13;;;10.30;99.90;;;;;;5076095;28;20456;-81
2022/10/09 00:14:55;;;;;;;0.93;0.80;;;10.30;99.90;;;;;;5075739;28;20988;-81
2022/10/09 00:17:22;;;;;;;1.57;0.63;;;10.30;99.90;;;;;;5075756;28;20438;-81
2022/10/09 00:19:49;;;;;;;0.90;0.60;;;10.30;99.90;;;;;;5075662;28;20445;-81
2022/10/09 00:22:15;;;;;;;1.43;1.00;;;10.30;99.90;;;;;;5075835;28;20465;-81
2022/10/09 00:24:43;;;;;;;0.70;0.70;;;10.20;99.90;;;;;;5075698;28;20535;-81
2022/10/09 00:27:09;;;;;;;0.60;0.50;;;10.10;99.90;;;;;;5075706;28;20485;-80
2022/10/09 00:29:36;;;;;;;1.33;0.60;;;10.10;99.90;;;;;;5075918;28;20460;-81
2022/10/09 00:32:05;;;;;;;2.47;1.60;;;10.10;99.90;;;;;;5075272;28;20816;-81
2022/10/09 00:34:31;;;;;;;0.80;0.60;;;10.10;99.90;;;;;;5075461;28;20890;-81
2022/10/09 00:36:58;;;;;;;1.37;1.37;;;10.00;99.90;;;;;;5075489;28;20445;-81
2022/10/09 00:39:25;;;;;;;1.87;0.80;;;10.00;99.90;;;;;;5075562;28;20453;-81
2022/10/09 00:41:52;;;;;;;0.60;0.50;;;10.00;99.90;;;;;;5075338;28;20445;-81
2022/10/09 00:44:46;;;;;;;0.40;0.40;;;9.90;99.90;;;;;;5075453;28;20492;-81
2022/10/09 00:47:20;;;;;;;0.57;0.57;;;9.90;99.90;;;;;;5074869;28;21001;-81
2022/10/09 00:49:48;;;;;;;1.60;0.57;;;9.90;99.90;;;;;;5075317;28;20411;-81
2022/10/09 00:52:15;;;;;;;0.60;0.50;;;9.90;99.90;;;;;;5075217;28;20445;-81
2022/10/09 00:54:43;;;;;;;1.20;1.00;;;9.80;99.90;;;;;;5074749;28;20469;-81
2022/10/09 00:57:11;;;;;;;4.83;0.50;;;9.80;99.90;;;;;;5075234;28;20446;-81
2022/10/09 00:59:39;;;;;;;0.77;0.77;;;9.90;99.90;;;;;;5075041;28;20446;-80
2022/10/09 01:02:06;;;;;;;2.33;0.60;;;9.90;99.90;;;;;;5073595;28;20456;-81
2022/10/09 01:04:34;;;;;;;1.20;0.67;;;9.90;99.90;;;;;;5074349;28;20985;-81
2022/10/09 01:07:28;;;;;;;1.33;1.33;;;9.90;99.90;;;;;;5074536;28;20937;-81
2022/10/09 01:09:58;;;;;;;9.10;1.00;;;10.00;99.90;;;;;;5074839;28;20445;-81
2022/10/09 01:12:34;;;;;;;0.40;0.40;;;10.00;99.90;;;;;;5074880;28;20430;-81
2022/10/09 01:15:09;;;;;;;1.60;0.60;;;10.10;99.90;;;;;;5074475;28;20894;-80
2022/10/09 01:17:41;;;;;;;1.63;0.70;;;10.10;99.90;;;;;;5074477;28;20432;-80
2022/10/09 01:20:31;;;;;;;10.67;0.70;;;10.10;99.90;;;;;;5074728;28;20444;-81
2022/10/09 01:23:35;;;;;;;0.93;0.60;;;10.10;99.90;;;;;;5074653;28;20430;-80
2022/10/09 01:26:14;;;;;;;0.80;0.47;;;10.20;99.90;;;;;;5074572;28;20429;-80
2022/10/09 01:28:46;;;;;;;0.57;0.40;;;10.20;99.90;;;;;;5075251;28;20520;-80
2022/10/09 01:31:14;;;;;;;1.27;0.80;;;10.20;99.90;;;;;;5074435;28;20444;-80
2022/10/09 01:33:41;;;;;;;0.83;0.57;;;10.20;99.90;;;;;;5074254;28;20441;-81
2022/10/09 01:36:09;;;;;;;5.33;0.90;;;10.10;99.90;;;;;;5073979;28;20445;-80
2022/10/09 01:38:37;;;;;;;4.87;0.87;;;10.10;99.90;;;;;;5073922;28;20876;-80
2022/10/09 01:41:07;;;;;;;0.93;0.80;;;10.00;99.90;;;;;;5073781;28;20945;-80
2022/10/09 01:43:33;;;;;;;0.80;0.77;;;10.10;99.90;;;;;;5074062;28;20448;-80
2022/10/09 01:46:20;;;;;;;3.10;1.07;;;10.00;99.90;;;;;;5073808;28;20448;-80
2022/10/09 01:48:57;;;;;;;1.30;1.20;;;10.00;99.90;;;;;;5073982;28;20470;-80
2022/10/09 01:51:29;;;;;;;1.30;0.70;;;9.90;99.90;;;;;;5074016;28;20440;-80
2022/10/09 01:54:00;;;;;;;2.80;0.50;;;9.90;99.90;;;;;;5073854;28;20466;-80
2022/10/09 01:56:32;;;;;;;0.40;0.40;;;9.90;99.90;;;;;;5073920;28;20442;-80
2022/10/09 01:59:04;;;;;;;1.53;0.50;;;9.90;99.90;;;;;;5073849;28;20414;-80
2022/10/09 02:01:36;;;;;;;0.60;0.60;;;9.90;99.90;;;;;;5073786;28;20426;-80
2022/10/09 02:04:05;;;;;;;0.40;0.40;;;9.90;99.90;;;;;;5073578;28;20489;-80
2022/10/09 02:06:33;;;;;;;0.40;0.40;;;9.90;99.90;;;;;;5073438;28;20454;-81
2022/10/09 02:09:00;;;;;;;0.87;0.60;;;9.90;99.90;;;;;;5073675;28;20482;-80
2022/10/09 02:11:30;;;;;;;0.67;0.50;;;9.90;99.90;;;;;;5073686;28;20448;-80
2022/10/09 02:13:58;;;;;;;3.17;0.50;;;9.80;99.90;;;;;;5073365;28;20469;-80
2022/10/09 02:16:36;;;;;;;0.80;0.50;;;9.80;99.90;;;;;;5073545;28;20452;-80
2022/10/09 02:19:10;;;;;;;0.50;0.40;;;9.80;99.90;;;;;;5073553;28;20438;-80
2022/10/09 02:21:40;;;;;;;0.50;0.50;;;9.90;99.90;;;;;;5073543;28;20445;-80
2022/10/09 02:24:12;;;;;;;0.50;0.50;;;9.90;99.90;;;;;;5073352;28;20824;-89
2022/10/09 02:26:39;;;;;;;1.30;0.70;;;9.80;99.90;;;;;;5074184;28;20433;-89
2022/10/09 02:29:06;;;;;;;2.20;0.53;;;9.80;99.90;;;;;;5074381;28;20560;-88
2022/10/09 02:31:37;;;;;;;0.40;0.30;;;9.80;99.90;;;;;;5074200;28;20808;-89
2022/10/09 02:34:07;;;;;;;1.83;0.90;;;9.80;99.90;;;;;;5074147;28;20479;-88
2022/10/09 02:36:35;;;;;;;0.80;0.40;;;9.80;99.90;;;;;;5074005;28;20445;-88
2022/10/09 02:39:04;;;;;;;0.53;0.53;;;9.80;99.90;;;;;;5074069;28;20441;-88
2022/10/09 02:41:30;;;;;;;0.60;0.40;;;9.80;99.90;;;;;;5074111;28;20446;-89
2022/10/09 02:43:57;;;;;;;0.50;0.50;;;9.70;99.90;;;;;;5074094;28;20470;-89
2022/10/09 02:46:24;;;;;;;0.47;0.43;;;9.70;99.90;;;;;;5074042;28;20468;-88
2022/10/09 02:48:52;;;;;;;0.47;0.47;;;9.60;99.90;;;;;;5074017;28;20482;-88
2022/10/09 02:51:19;;;;;;;0.50;0.40;;;9.60;99.90;;;;;;5074064;28;20445;-88
2022/10/09 02:53:46;;;;;;;0.33;0.33;;;9.60;99.90;;;;;;5074007;28;20455;-88
2022/10/09 02:56:13;;;;;;;0.60;0.60;;;9.60;99.90;;;;;;5074082;28;20468;-89
2022/10/09 02:58:40;;;;;;;0.43;0.43;;;9.50;99.90;;;;;;5074204;28;20464;-88
2022/10/09 03:01:07;;;;;;;0.40;0.40;;;9.50;99.90;;;;;;5076564;28;20449;-88
2022/10/09 03:03:34;;;;;;;0.40;0.40;;;9.40;99.90;;;;;;5075227;28;20487;-88
2022/10/09 03:06:04;;;;;;;3.40;0.40;;;9.40;99.90;;;;;;5076040;28;20440;-88
2022/10/09 03:08:31;;;;;;;0.43;0.43;;;9.30;99.90;;;;;;5075278;28;20489;-88
2022/10/09 03:10:58;;;;;;;6.30;0.70;;;9.40;99.90;;;;;;5074504;28;20451;-88
2022/10/09 03:13:24;;;;;;;0.40;0.40;;;9.30;99.90;;;;;;5074163;28;20461;-88
2022/10/09 03:15:51;;;;;;;0.97;0.40;;;9.40;99.90;;;;;;5073546;28;21003;-89
2022/10/09 03:18:18;;;;;;;0.40;0.40;;;9.30;99.90;;;;;;5073359;28;20936;-88
2022/10/09 03:20:45;;;;;;;0.80;0.67;;;9.30;99.90;;;;;;5073336;28;20933;-88
2022/10/09 03:23:13;;;;;;;3.93;1.07;;;9.30;99.90;;;;;;5073483;28;20452;-88
2022/10/09 03:25:40;;;;;;;0.40;0.33;;;9.30;99.90;;;;;;5076754;28;20515;-88
2022/10/09 03:28:07;;;;;;;0.50;0.50;;;9.30;99.90;;;;;;5077451;28;20491;-88
2022/10/09 03:30:34;;;;;;;0.40;0.40;;;9.30;99.90;;;;;;5077316;28;20826;-88
2022/10/09 03:33:01;;;;;;;1.23;0.50;;;9.30;99.90;;;;;;5077498;28;20441;-88
2022/10/09 03:35:27;;;;;;;3.90;0.70;;;9.30;99.90;;;;;;5077318;28;20471;-88
2022/10/09 03:37:54;;;;;;;0.60;0.40;;;9.30;99.90;;;;;;5077305;28;20445;-88
2022/10/09 03:40:22;;;;;;;1.07;0.73;;;9.30;99.90;;;;;;5077193;28;20451;-88
2022/10/09 03:42:49;;;;;;;1.60;0.60;;;9.30;99.90;;;;;;5077121;28;20449;-88
2022/10/09 03:45:16;;;;;;;0.50;0.50;;;9.40;99.90;;;;;;5077128;28;20469;-88
2022/10/09 03:47:42;;;;;;;0.70;0.70;;;9.40;99.90;;;;;;5077171;28;20453;-88
2022/10/09 03:50:10;;;;;;;1.13;0.77;;;9.30;99.90;;;;;;5076652;28;20488;-88
2022/10/09 03:52:36;;;;;;;1.33;0.60;;;9.30;99.90;;;;;;5076898;28;20502;-88
2022/10/09 03:55:04;;;;;;;0.67;0.67;;;9.30;99.90;;;;;;5077164;28;20489;-88
2022/10/09 03:57:32;;;;;;;1.07;1.03;;;9.30;99.90;;;;;;5076783;28;20452;-88
2022/10/09 03:59:59;;;;;;;0.40;0.33;;;9.30;99.90;;;;;;5077070;28;20445;-88
2022/10/09 04:02:26;;;;;;;0.93;0.50;;;9.30;99.90;;;;;;5077108;28;20445;-88
2022/10/09 04:04:53;;;;;;;2.37;1.03;;;9.20;99.90;;;;;;5076252;28;20485;-88
2022/10/09 04:07:20;;;;;;;0.73;0.60;;;9.20;99.90;;;;;;5077000;28;20445;-88
2022/10/09 04:09:46;;;;;;;1.63;0.33;;;9.20;99.90;;;;;;5076522;28;20476;-88
2022/10/09 04:12:13;;;;;;;0.50;0.40;;;9.30;99.90;;;;;;5076749;28;20944;-88
2022/10/09 04:14:41;;;;;;;0.60;0.50;;;9.30;99.90;;;;;;5076353;28;20835;-88
2022/10/09 04:17:08;;;;;;;0.60;0.30;;;9.30;99.90;;;;;;5076533;28;20452;-88
2022/10/09 04:19:35;;;;;;;0.47;0.47;;;9.30;99.90;;;;;;5076636;28;20456;-88
2022/10/09 04:22:03;;;;;;;0.40;0.40;;;9.20;99.90;;;;;;5076455;28;20503;-88
2022/10/09 04:24:29;;;;;;;0.60;0.60;;;9.20;99.90;;;;;;5076584;28;20481;-88
2022/10/09 04:26:56;;;;;;;0.80;0.70;;;9.20;99.90;;;;;;5076463;28;20816;-88
2022/10/09 04:29:23;;;;;;;0.70;0.53;;;9.20;99.90;;;;;;5076105;28;20473;-88
2022/10/09 04:31:51;;;;;;;1.13;0.73;;;9.20;99.90;;;;;;5076240;28;20456;-88
2022/10/09 04:34:18;;;;;;;0.63;0.63;;;9.10;99.90;;;;;;5076155;28;20473;-88
2022/10/09 04:36:45;;;;;;;1.37;0.50;;;9.10;99.90;;;;;;5076149;28;20450;-88
2022/10/09 04:39:12;;;;;;;0.50;0.50;;;9.10;99.90;;;;;;5076215;28;20453;-88
2022/10/09 04:41:39;;;;;;;3.77;0.73;;;9.10;99.90;;;;;;5076072;28;20456;-88
2022/10/09 04:44:05;;;;;;;0.67;0.57;;;9.10;99.90;;;;;;5076006;28;20473;-88
2022/10/09 04:46:32;;;;;;;0.40;0.40;;;9.10;99.90;;;;;;5075899;28;20450;-88
2022/10/09 04:49:00;;;;;;;0.87;0.87;;;9.00;99.90;;;;;;5075578;28;20477;-88
2022/10/09 04:51:27;;;;;;;1.10;0.70;;;9.00;99.90;;;;;;5075940;28;20454;-88
2022/10/09 04:53:55;;;;;;;0.63;0.63;;;9.00;99.90;;;;;;5075694;28;20483;-88
2022/10/09 04:56:23;;;;;;;0.40;0.40;;;9.00;99.90;;;;;;5075986;28;20450;-88
2022/10/09 04:58:51;;;;;;;0.40;0.40;;;9.00;99.90;;;;;;5075784;28;20818;-88
2022/10/09 05:01:20;;;;;;;0.50;0.50;;;9.00;99.90;;;;;;5076019;28;20449;-88
2022/10/09 05:03:47;;;;;;;0.40;0.30;;;9.00;99.90;;;;;;5075434;28;20992;-89
2022/10/09 05:06:16;;;;;;;0.40;0.30;;;9.00;99.90;;;;;;5075746;28;20445;-88
2022/10/09 05:08:43;;;;;;;0.53;0.53;;;9.00;99.90;;;;;;5075973;28;20477;-88
2022/10/09 05:11:11;;;;;;;2.17;0.60;;;9.00;99.90;;;;;;5075559;28;20484;-88
2022/10/09 05:13:40;;;;;;;0.30;0.30;;;9.00;99.90;;;;;;5075931;28;20494;-89
2022/10/09 05:16:09;;;;;;;1.43;0.57;;;9.00;99.90;;;;;;5075129;28;20485;-88
2022/10/09 05:18:40;;;;;;;0.90;0.80;;;9.00;99.90;;;;;;5075494;28;20466;-88
2022/10/09 05:21:07;;;;;;;0.50;0.50;;;9.00;99.90;;;;;;5075471;28;20444;-88
2022/10/09 05:23:35;;;;;;;0.50;0.43;;;9.00;99.90;;;;;;5075178;28;20452;-89
2022/10/09 05:26:05;;;;;;;0.67;0.67;;;9.00;99.90;;;;;;5075195;28;20811;-88
2022/10/09 05:28:32;;;;;;;0.50;0.40;;;9.00;99.90;;;;;;5075021;28;20535;-88
2022/10/09 05:30:59;;;;;;;0.60;0.60;;;9.00;99.90;;;;;;5074833;28;20449;-88
2022/10/09 05:33:26;;;;;;;0.40;0.40;;;9.00;99.90;;;;;;5075145;28;20945;-88
2022/10/09 05:35:53;;;;;;;0.53;0.53;;;9.00;99.90;;;;;;5075263;28;20461;-88
2022/10/09 05:38:22;;;;;;;0.70;0.60;;;9.00;99.90;;;;;;5076572;28;20456;-88
2022/10/09 05:40:55;;;;;;;0.60;0.60;;;9.00;99.90;;;;;;5074930;28;20472;-88
2022/10/09 05:43:23;;;;;;;0.60;0.40;;;9.00;99.90;;;;;;5074643;28;20452;-88
2022/10/09 05:45:50;;;;;;;1.07;0.70;;;9.00;99.90;;;;;;5074954;28;20481;-88
2022/10/09 05:48:17;;;;;;;6.43;1.17;;;9.00;99.90;;;;;;5073970;28;20540;-88
2022/10/09 05:50:44;;;;;;;1.47;0.80;;;8.90;99.90;;;;;;5074653;28;20482;-87
2022/10/09 05:53:11;;;;;;;0.50;0.40;;;8.90;99.90;;;;;;5074347;28;20967;-87
2022/10/09 05:55:38;;;;;;;0.60;0.60;;;8.90;99.90;;;;;;5074725;28;20462;-88
2022/10/09 05:58:06;;;;;;;0.60;0.50;;;8.90;99.90;;;;;;5074498;28;20487;-88
2022/10/09 06:00:33;;;;;;;2.30;0.70;;;8.90;99.90;;;;;;5074474;28;20442;-88
2022/10/09 06:03:00;;;;;;;0.70;0.70;;;8.90;99.90;;;;;;5074311;28;20455;-87
2022/10/09 06:05:27;;;;;;;0.53;0.33;;;8.80;99.90;;;;;;5074431;28;20461;-88
2022/10/09 06:07:53;;;;;;;0.60;0.60;;;8.90;99.90;;;;;;5074411;28;20442;-88
2022/10/09 06:10:20;;;;;;;0.60;0.60;;;8.80;99.90;;;;;;5074126;28;20484;-88
2022/10/09 06:12:47;;;;;;;0.87;0.53;;;8.80;99.90;;;;;;5074374;28;20441;-87
2022/10/09 06:15:15;;;;;;;1.93;0.70;;;8.80;99.90;;;;;;5074184;28;20469;-88
2022/10/09 06:17:42;;;;;;;0.40;0.30;;;8.80;99.90;;;;;;5074516;28;20454;-88
2022/10/09 06:20:09;;;;;;;1.67;0.50;;;8.90;99.90;;;;;;5074272;28;20438;-87
2022/10/09 06:22:36;;;;;;;0.47;0.43;;;8.80;99.90;;;;;;5073873;28;20956;-87
2022/10/09 06:25:02;;;;;;;0.40;0.40;;;8.80;99.90;;;;;;5073782;28;21011;-87
2022/10/09 06:27:29;;;;;;;0.70;0.70;;;8.80;99.90;;;;;;5074062;28;20457;-88
2022/10/09 06:29:56;;;;;;;0.50;0.40;;;8.90;99.90;;;;;;5074579;28;20984;-88
2022/10/09 06:32:24;;;;;;;2.37;0.63;;;8.90;99.90;;;;;;5073855;28;20456;-88
2022/10/09 06:34:52;;;;;;;0.73;0.37;;;8.90;99.90;;;;;;5073994;28;20472;-88
2022/10/09 06:37:21;;;;;;;0.73;0.50;;;9.00;99.90;;;;;;5074007;28;20450;-88
2022/10/09 06:39:47;;;;;;;2.30;1.30;;;9.00;99.90;;;;;;5073579;28;20505;-87
2022/10/09 06:42:15;;;;;;;0.60;0.60;;;9.10;99.90;;;;;;5073767;28;20433;-88
2022/10/09 06:44:43;;;;;;;0.57;0.50;;;9.10;99.90;;;;;;5073908;28;20482;-87
2022/10/09 06:47:10;;;;;;;3.00;0.70;;;9.10;99.90;;;;;;5073902;28;20518;-88
2022/10/09 06:49:38;;;;;;;2.10;0.60;;;9.10;99.90;;;;;;5073793;28;20496;-88
2022/10/09 06:52:05;;;;;;;1.17;0.60;;;9.20;99.90;;;;;;5073823;28;20437;-87
2022/10/09 06:54:31;;;;;;;0.60;0.40;;;9.20;99.90;;;;;;5074010;28;20469;-89
2022/10/09 06:56:58;;;;;;;1.17;0.40;;;9.30;99.90;;;;;;5074036;28;20444;-88
2022/10/09 06:59:25;;;;;;;0.50;0.50;;;9.40;99.90;;;;;;5075104;28;20452;-88
2022/10/09 07:01:52;;;;;;;4.27;0.80;;;9.40;99.90;;;;;;5078140;28;20449;-88
2022/10/09 07:04:18;;;;;;;0.70;0.70;;;9.50;99.90;;;;;;5080493;28;20492;-88
2022/10/09 07:06:47;;;;;;;0.63;0.60;;;9.50;99.90;;;;;;5080272;28;20456;-88
2022/10/09 07:09:15;;;;;;;0.60;0.40;;;9.60;99.90;;;;;;5082716;28;20529;-88
2022/10/09 07:11:44;;;;;;;0.80;0.80;;;9.60;99.90;;;;;;5078403;28;20449;-89
2022/10/09 07:14:12;;;;;;;5.60;0.60;;;9.60;99.90;;;;;;5080162;28;20465;-89
2022/10/09 07:16:41;;;;;;;0.30;0.30;;;9.70;99.90;;;;;;5078718;28;20454;-88
2022/10/09 07:19:10;;;;;;;0.77;0.60;;;9.70;99.90;;;;;;5077844;28;20452;-89
2022/10/09 07:21:39;;;;;;;0.50;0.43;;;9.80;99.90;;;;;;5077507;28;20485;-89
2022/10/09 07:24:09;;;;;;;0.70;0.53;;;9.80;99.90;;;;;;5078040;28;20854;-89
2022/10/09 07:26:37;;;;;;;1.13;0.50;;;10.00;99.90;;;;;;5077508;28;20437;-89
2022/10/09 07:29:05;;;;;;;0.50;0.50;;;10.00;99.90;;;;;;5077595;28;20445;-89
2022/10/09 07:31:32;;;;;;;1.37;0.80;;;10.10;99.90;;;;;;5077929;28;20476;-89
2022/10/09 07:33:59;;;;;;;1.53;0.50;;;10.10;99.90;;;;;;5077631;28;20473;-89
2022/10/09 07:36:26;;;;;;;3.10;0.67;;;10.20;99.90;;;;;;5077710;28;20445;-90
2022/10/09 07:38:55;;;;;;;0.70;0.60;;;10.20;99.90;;;;;;5078089;28;20822;-90
2022/10/09 07:41:26;;;;;;;0.50;0.50;;;10.30;99.90;;;;;;5077342;28;20433;-89
2022/10/09 07:43:53;;;;;;;1.17;0.50;;;10.40;99.90;;;;;;5077546;28;20434;-89
2022/10/09 07:46:22;;;;;;;0.50;0.40;;;10.50;99.90;;;;;;5077158;28;20438;-89
2022/10/09 07:48:49;;;;;;;0.40;0.40;;;10.60;99.90;;;;;;5077487;28;20449;-90
2022/10/09 07:51:18;;;;;;;0.60;0.60;;;10.70;99.90;;;;;;5077447;28;20485;-89
2022/10/09 07:53:45;;;;;;;0.80;0.67;;;10.80;99.90;;;;;;5076895;28;20793;-79
2022/10/09 07:56:14;;;;;;;1.77;0.60;;;10.90;99.90;;;;;;5076344;28;20451;-79
2022/10/09 07:58:43;;;;;;;0.70;0.50;;;10.90;99.90;;;;;;5076540;28;20457;-79
2022/10/09 08:01:10;;;;;;;0.70;0.53;;;11.00;99.90;;;;;;5076286;28;20543;-79
2022/10/09 08:03:37;;;;;;;1.80;0.50;;;11.20;99.90;;;;;;5075952;28;20477;-78
2022/10/09 08:06:05;;;;;;;0.70;0.50;;;11.30;99.90;;;;;;5075948;28;20437;-80
2022/10/09 08:08:32;;;;;;;1.60;0.60;;;11.50;99.90;;;;;;5075902;28;20468;-79
2022/10/09 08:11:00;;;;;;;1.63;0.60;;;11.60;99.90;;;;;;5075434;28;20558;-79
2022/10/09 08:13:27;;;;;;;1.63;0.90;;;11.70;99.90;;;;;;5076168;28;20453;-79
2022/10/09 08:15:59;;;;;;;0.93;0.60;;;11.90;99.90;;;;;;5076170;28;20473;-79
2022/10/09 08:18:26;;;;;;;0.50;0.40;;;12.20;99.90;;;;;;5075966;28;20989;-79
2022/10/09 08:20:59;;;;;;;1.83;1.73;;;12.40;99.90;;;;;;5075647;28;20446;-78
2022/10/09 08:23:27;;;;;;;0.80;0.50;;;12.50;99.90;;;;;;5075871;28;20457;-78
2022/10/09 08:25:54;;;;;;;1.00;0.90;;;12.70;99.90;;;;;;5075456;28;20907;-78
2022/10/09 08:28:21;;;;;;;1.10;0.60;;;12.80;99.90;;;;;;5075817;28;20449;-79
2022/10/09 08:30:49;;;;;;;0.70;0.40;;;13.00;99.90;;;;;;5075615;28;20488;-80
2022/10/09 08:33:20;;;;;;;0.50;0.50;;;13.10;99.90;;;;;;5075658;28;20535;-79
2022/10/09 08:35:47;;;;;;;1.90;1.00;;;13.30;99.90;;;;;;5075334;28;20560;-80
2022/10/09 08:38:14;;;;;;;0.93;0.50;;;13.40;99.90;;;;;;5075394;28;20449;-80
2022/10/09 08:40:50;;;;;;;0.40;0.40;;;13.50;99.90;;;;;;5075229;28;20491;-80
2022/10/09 08:43:23;;;;;;;1.17;0.47;;;13.60;99.90;;;;;;5075604;28;20433;-80
2022/10/09 08:45:52;;;;;;;0.60;0.50;;;13.60;99.90;;;;;;5075695;28;20469;-79
2022/10/09 08:48:23;;;;;;;0.50;0.47;;;13.90;99.90;;;;;;5075185;28;20453;-79
2022/10/09 08:50:52;;;;;;;4.20;0.80;;;14.10;99.90;;;;;;5075263;28;20967;-79
2022/10/09 08:53:30;;;;;;;1.53;0.90;;;14.40;99.90;;;;;;5075046;28;20449;-79
2022/10/09 08:55:58;;;;;;;1.07;0.63;;;14.60;99.90;;;;;;5075369;28;20469;-80
2022/10/09 08:58:30;;;;;;;0.50;0.50;;;15.00;99.90;;;;;;5075281;28;20449;-79
2022/10/09 09:01:02;;;;;;;0.57;0.57;;;15.40;99.90;;;;;;5075249;28;20433;-79
2022/10/09 09:03:53;;;;;;;1.03;0.50;;;15.60;99.90;;;;;;5075000;28;20845;-79
2022/10/09 09:06:31;;;;;;;1.80;0.93;;;15.90;99.90;;;;;;5072560;28;20458;-79
2022/10/09 09:09:05;;;;;;;0.70;0.70;;;16.20;99.90;;;;;;5075277;28;20434;-79
2022/10/09 09:11:43;;;;;;;0.70;0.50;;;16.50;99.90;;;;;;5074977;28;20475;-79
2022/10/09 09:14:28;;;;;;;0.83;0.50;;;16.80;99.90;;;;;;5074946;28;20540;-79
2022/10/09 09:17:02;;;;;;;0.50;0.50;;;16.90;99.90;;;;;;5074876;28;20433;-80
2022/10/09 09:19:42;;;;;;;0.50;0.50;;;17.30;99.90;;;;;;5074859;28;20437;-80
2022/10/09 09:22:13;;;;;;;1.50;0.80;;;17.70;99.90;;;;;;5073778;28;20438;-87
2022/10/09 09:24:43;;;;;;;0.60;0.60;;;18.00;99.90;;;;;;5075106;28;20470;-87
2022/10/09 09:27:13;;;;;;;0.60;0.50;;;18.10;99.90;;;;;;5074561;28;20810;-87
2022/10/09 09:29:46;;;;;;;0.77;0.77;;;18.30;99.90;;;;;;5074719;28;20826;-86
2022/10/09 09:32:19;;;;;;;0.80;0.80;;;18.50;99.90;;;;;;5075044;28;20501;-88
2022/10/09 09:34:47;;;;;;;1.17;0.60;;;18.60;99.90;;;;;;5074875;28;20473;-89
2022/10/09 09:37:15;;;;;;;2.03;0.70;;;18.50;99.90;;;;;;5075127;28;20445;-88
2022/10/09 09:39:42;;;;;;;0.60;0.60;;;18.70;99.90;;;;;;5075251;28;20450;-89
2022/10/09 09:42:15;;;;;;;1.00;0.70;;;18.80;99.90;;;;;;5075000;28;20884;-89
2022/10/09 09:44:46;;;;;;;0.50;0.50;;;18.60;99.90;;;;;;5074996;28;20504;-88
2022/10/09 09:47:16;;;;;;;0.70;0.53;;;18.30;99.90;;;;;;5075002;28;20893;-89
2022/10/09 09:49:56;;;;;;;0.90;0.50;;;18.20;99.90;;;;;;5074890;28;20453;-90
2022/10/09 09:52:27;;;;;;;2.63;0.60;;;18.20;99.90;;;;;;5075023;28;20438;-89
2022/10/09 09:54:57;;;;;;;1.63;0.50;;;18.10;99.90;;;;;;5074941;28;20500;-90
2022/10/09 09:57:34;;;;;;;0.87;0.53;;;18.10;99.90;;;;;;5075930;28;20491;-87
2022/10/09 10:00:10;;;;;;;0.83;0.70;;;18.10;99.90;;;;;;5074543;28;20437;-89
2022/10/09 10:02:36;;;;;;;1.10;0.60;;;18.20;99.90;;;;;;5074128;28;20916;-88
2022/10/09 10:05:17;;;;;;;0.73;0.63;;;18.50;99.90;;;;;;5074436;28;20489;-89
2022/10/09 10:07:48;;;;;;;4.33;0.50;;;18.60;99.90;;;;;;5074116;28;20779;-89
2022/10/09 10:10:19;;;;;;;3.17;0.77;;;19.10;99.90;;;;;;5074335;28;20476;-87
2022/10/09 10:12:53;;;;;;;1.97;0.60;;;19.40;99.90;;;;;;5074405;28;20429;-88
2022/10/09 10:15:24;;;;;;;0.90;0.73;;;19.80;99.90;;;;;;5074025;28;20507;-87
2022/10/09 10:17:59;;;;;;;1.50;0.63;;;20.30;99.90;;;;;;5073893;28;20972;-87
2022/10/09 10:20:28;;;;;;;1.10;0.57;;;20.20;99.90;;;;;;5074430;28;20433;-89
2022/10/09 10:22:57;;;;;;;1.00;0.53;;;19.90;98.90;;;;;;5074464;28;20457;-88
2022/10/09 10:25:29;;;;;;;0.60;0.60;;;19.80;99.50;;;;;;5074786;28;20476;-89
2022/10/09 10:28:01;;;;;;;0.50;0.50;;;19.60;99.40;;;;;;5074976;28;20437;-91
2022/10/09 10:30:28;;;;;;;0.70;0.70;;;20.20;98.30;;;;;;5074880;28;20832;-90
2022/10/09 10:33:02;;;;;;;0.60;0.43;;;20.80;97.80;;;;;;5074766;28;20425;-89
2022/10/09 10:35:33;;;;;;;4.53;0.60;;;21.90;95.20;;;;;;5074573;28;20469;-90
2022/10/09 10:38:06;;;;;;;2.10;0.40;;;22.20;93.70;;;;;;5074517;28;20429;-89
2022/10/09 10:40:36;;;;;;;1.00;0.70;;;22.30;94.10;;;;;;5074686;28;20429;-89
2022/10/09 10:43:14;;;;;;;0.40;0.40;;;22.10;93.00;;;;;;5074594;28;20456;-89
2022/10/09 10:45:52;;;;;;;0.80;0.50;;;21.50;92.70;;;;;;5074643;28;20472;-89
2022/10/09 10:48:24;;;;;;;1.80;0.67;;;21.10;93.80;;;;;;5074191;28;20440;-90
2022/10/09 10:51:01;;;;;;;1.87;0.63;;;20.50;94.70;;;;;;5074438;28;20472;-92
2022/10/09 10:53:41;;;;;;;0.80;0.50;;;19.70;95.00;;;;;;5074051;28;20917;-87
2022/10/09 10:56:15;;;;;;;0.97;0.60;;;19.10;95.20;;;;;;5073979;28;20433;-88
2022/10/09 10:58:51;;;;;;;0.70;0.70;;;18.60;96.50;;;;;;5074823;28;20435;-91
2022/10/09 11:01:31;;;;;;;0.90;0.70;;;18.20;96.40;;;;;;5075322;28;20482;-93
2022/10/09 11:04:17;;;;;;;1.13;0.40;;;18.00;97.20;;;;;;5074770;28;20821;-91
2022/10/09 11:06:53;;;;;;;2.43;0.80;;;17.70;97.70;;;;;;5074700;28;20861;-91
2022/10/09 11:09:29;;;;;;;1.47;0.40;;;17.60;98.40;;;;;;5075355;28;20429;-89
2022/10/09 11:12:05;;;;;;;1.80;1.00;;;17.50;98.30;;;;;;5074709;28;20559;-90
2022/10/09 11:14:44;;;;;;;3.40;0.90;;;17.30;98.60;;;;;;5075078;28;20501;-92
2022/10/09 11:17:18;;;;;;;2.00;1.13;;;17.10;99.40;;;;;;5074495;28;20410;-90
2022/10/09 11:20:04;;;;;;;0.63;0.47;;;17.10;98.90;;;;;;5074589;28;20441;-92
2022/10/09 11:22:56;;;;;;;0.73;0.57;;;17.00;98.70;;;;;;5074288;28;20444;-90
2022/10/09 11:25:29;;;;;;;1.60;0.60;;;16.90;99.10;;;;;;5074508;28;20472;-90
2022/10/09 11:28:01;;;;;;;0.40;0.40;;;17.00;98.60;;;;;;5075412;28;20438;-91
2022/10/09 11:30:36;;;;;;;0.43;0.43;;;16.90;98.60;;;;;;5074262;28;20441;-92
2022/10/09 11:33:10;;;;;;;0.60;0.60;;;16.90;99.50;;;;;;5074933;28;20430;-92
2022/10/09 11:35:42;;;;;;;1.13;0.40;;;16.80;99.20;;;;;;5073765;28;20476;-89
2022/10/09 11:38:25;;;;;;;0.60;0.40;;;16.80;98.70;;;;;;5074331;28;20449;-91
2022/10/09 11:40:53;;;;;;;0.50;0.40;;;16.80;99.10;;;;;;5073777;28;20876;-87
2022/10/09 11:43:41;;;;;;;1.60;0.50;;;16.70;99.00;;;;;;5074212;28;20450;-89
2022/10/09 11:46:16;;;;;;;0.80;0.53;;;16.50;99.20;;;;;;5076498;28;20917;-87
2022/10/09 11:48:51;;;;;;;0.60;0.40;;;16.40;99.40;;;;;;5078785;28;20617;-91
2022/10/09 11:51:28;;;;;;;1.63;0.60;;;16.30;99.70;;;;;;5077468;28;20471;-91
2022/10/09 11:53:57;;;;;;;0.60;0.60;;;16.10;99.10;;;;;;5077600;28;20480;-88
2022/10/09 11:56:26;;;;;;;0.40;0.33;;;15.90;99.60;;;;;;5076971;28;20429;-90
2022/10/09 11:58:58;;;;;;;0.50;0.50;;;15.90;99.70;;;;;;5077361;28;20445;-90
2022/10/09 12:01:29;;;;;;;0.67;0.67;;;15.90;99.90;;;;;;5076869;28;20447;-78
2022/10/09 12:04:01;;;;;;;0.40;0.40;;;16.00;99.90;;;;;;5076082;28;21029;-79
2022/10/09 12:06:30;;;;;;;0.43;0.40;;;16.00;99.90;;;;;;5075818;28;20453;-79
2022/10/09 12:09:00;;;;;;;0.40;0.30;;;15.90;99.90;;;;;;5076061;28;20541;-79
2022/10/09 12:11:28;;;;;;;0.40;0.40;;;15.90;99.90;;;;;;5076130;28;20465;-79
2022/10/09 12:13:57;;;;;;;0.40;0.40;;;15.90;99.90;;;;;;5076065;28;20465;-78
2022/10/09 12:16:35;;;;;;;0.40;0.30;;;15.90;99.90;;;;;;5075774;28;20528;-78
2022/10/09 12:19:05;;;;;;;0.60;0.50;;;15.90;99.90;;;;;;5076968;28;20761;-79
2022/10/09 12:21:37;;;;;;;0.40;0.40;;;16.00;99.90;;;;;;5076586;28;20418;-79
2022/10/09 12:24:07;;;;;;;0.40;0.37;;;15.90;99.90;;;;;;5075667;28;20472;-79
2022/10/09 12:26:35;;;;;;;0.40;0.30;;;15.90;99.90;;;;;;5075891;28;20456;-78
2022/10/09 12:29:03;;;;;;;0.73;0.47;;;15.90;99.90;;;;;;5076313;28;20453;-79
2022/10/09 12:31:34;;;;;;;0.70;0.50;;;15.80;99.90;;;;;;5075403;28;20526;-79
2022/10/09 12:34:04;;;;;;;0.40;0.40;;;15.80;99.90;;;;;;5076249;28;20458;-80
2022/10/09 12:36:32;;;;;;;0.40;0.40;;;15.70;99.90;;;;;;5075864;28;20441;-80
2022/10/09 12:39:14;;;;;;;0.50;0.50;;;15.60;99.90;;;;;;5076404;28;20454;-79
2022/10/09 12:41:44;;;;;;;0.50;0.50;;;15.60;99.90;;;;;;5076389;28;20430;-79
2022/10/09 12:44:24;;;;;;;1.07;0.50;;;15.60;99.90;;;;;;5075462;28;20475;-79
2022/10/09 12:46:51;;;;;;;0.80;0.50;;;15.60;99.90;;;;;;5075402;28;20434;-78
2022/10/09 12:49:21;;;;;;;0.67;0.60;;;15.60;99.90;;;;;;5076216;28;20449;-78
2022/10/09 12:51:52;;;;;;;0.40;0.40;;;15.60;99.90;;;;;;5075304;28;20477;-79
2022/10/09 12:54:23;;;;;;;1.13;0.40;;;15.60;99.90;;;;;;5075271;28;20461;-79
2022/10/09 12:56:51;;;;;;;0.30;0.30;;;15.60;99.90;;;;;;5074074;28;20425;-79
2022/10/09 12:59:18;;;;;;;0.40;0.30;;;15.60;99.90;;;;;;5074917;28;20456;-80
2022/10/09 13:01:46;;;;;;;1.17;0.40;;;15.70;99.90;;;;;;5074879;28;20452;-80
2022/10/09 13:04:30;;;;;;;1.20;0.50;;;15.70;99.90;;;;;;5074651;28;20475;-80